Time,TemperatureF,DewpointF,PressureIn,WindDirection,WindDirectionDegrees,WindSpeedMPH,WindSpeedGustMPH,Humidity,HourlyPrecipIn,Conditions,Clouds,dailyrainin,SoftwareType,DateUTC
2013-05-11 00:00:00,56.3,55.5,29.51,NW,325,0.0,0.0,97,0.00,,,0.22,Wunderground v.1.15,2013-05-11 04:00:00,
2013-05-11 00:05:00,56.3,55.5,29.50,NW,325,0.0,0.0,97,0.00,,,0.00,Wunderground v.1.15,2013-05-11 04:05:00,
2013-05-11 00:15:00,56.5,55.7,29.51,NW,325,0.0,0.0,97,0.00,,,0.00,Wunderground v.1.15,2013-05-11 04:15:00,
2013-05-11 00:20:00,56.5,55.7,29.50,NW,325,0.0,0.0,97,0.00,,,0.00,Wunderground v.1.15,2013-05-11 04:20:00,
2013-05-11 00:35:00,56.6,55.5,29.50,SW,220,1.0,1.0,96,0.00,,,0.00,Wunderground v.1.15,2013-05-11 04:35:00,
2013-05-11 00:40:00,56.8,55.7,29.50,South,169,2.0,2.0,96,0.00,,,0.00,Wunderground v.1.15,2013-05-11 04:40:00,
2013-05-11 00:45:00,56.8,55.7,29.49,SSW,202,1.0,2.0,96,0.00,,,0.00,Wunderground v.1.15,2013-05-11 04:45:00,
2013-05-11 00:55:00,56.7,55.3,29.49,SSW,211,1.0,1.0,95,0.00,,,0.00,Wunderground v.1.15,2013-05-11 04:55:00,
2013-05-11 01:00:00,56.8,55.4,29.49,SW,219,1.0,1.0,95,0.00,,,0.00,Wunderground v.1.15,2013-05-11 05:00:00,
2013-05-11 01:05:00,56.8,55.4,29.48,SW,215,1.0,1.0,95,0.00,,,0.00,Wunderground v.1.15,2013-05-11 05:05:00,
2013-05-11 01:15:00,57.0,55.3,29.48,SW,216,1.0,1.0,94,0.00,,,0.00,Wunderground v.1.15,2013-05-11 05:15:00,
2013-05-11 01:20:00,57.0,55.3,29.48,SSW,200,1.0,2.0,94,0.00,,,0.00,Wunderground v.1.15,2013-05-11 05:20:00,
2013-05-11 01:35:00,57.7,55.4,29.47,SW,223,3.0,3.0,92,0.00,,,0.00,Wunderground v.1.15,2013-05-11 05:35:00,
2013-05-11 01:45:00,58.3,55.4,29.47,SSW,213,3.0,3.0,90,0.00,,,0.00,Wunderground v.1.15,2013-05-11 05:45:00,
2013-05-11 01:50:00,58.5,55.6,29.47,SSW,209,3.0,3.0,90,0.00,,,0.00,Wunderground v.1.15,2013-05-11 05:50:00,
2013-05-11 02:05:00,57.8,55.2,29.46,WSW,240,1.0,2.0,91,0.00,,,0.00,Wunderground v.1.15,2013-05-11 06:05:00,
2013-05-11 02:15:00,57.4,55.1,29.46,SSW,202,2.0,2.0,92,0.00,,,0.00,Wunderground v.1.15,2013-05-11 06:15:00,
2013-05-11 02:20:00,57.5,55.2,29.46,SSW,212,2.0,2.0,92,0.00,,,0.00,Wunderground v.1.15,2013-05-11 06:20:00,
2013-05-11 02:30:00,57.6,55.0,29.46,SSW,211,3.0,4.0,91,0.00,,,0.00,Wunderground v.1.15,2013-05-11 06:30:00,
2013-05-11 02:40:00,57.9,55.3,29.45,WSW,244,3.0,5.0,91,0.00,,,0.00,Wunderground v.1.15,2013-05-11 06:40:00,
2013-05-11 02:45:00,57.9,55.0,29.45,SW,219,3.0,5.0,90,0.00,,,0.00,Wunderground v.1.15,2013-05-11 06:45:00,
2013-05-11 02:50:00,57.8,55.2,29.45,SSW,194,2.0,2.0,91,0.00,,,0.00,Wunderground v.1.15,2013-05-11 06:50:00,
2013-05-11 02:55:00,57.7,55.1,29.45,South,173,1.0,2.0,91,0.00,,,0.00,Wunderground v.1.15,2013-05-11 06:55:00,
2013-05-11 03:05:00,57.6,55.0,29.44,South,182,1.0,1.0,91,0.00,,,0.00,Wunderground v.1.15,2013-05-11 07:05:00,
2013-05-11 03:15:00,57.4,54.8,29.44,SW,224,0.0,0.0,91,0.00,,,0.00,Wunderground v.1.15,2013-05-11 07:15:00,
2013-05-11 03:25:00,57.2,54.9,29.43,North,349,0.0,0.0,92,0.00,,,0.00,Wunderground v.1.15,2013-05-11 07:25:00,
2013-05-11 03:40:00,57.0,54.7,29.43,North,349,0.0,0.0,92,0.00,,,0.00,Wunderground v.1.15,2013-05-11 07:40:00,
2013-05-11 03:45:00,56.9,54.6,29.43,North,349,0.0,0.0,92,0.00,,,0.00,Wunderground v.1.15,2013-05-11 07:45:00,
2013-05-11 03:50:00,56.9,54.6,29.43,North,349,0.0,0.0,92,0.00,,,0.00,Wunderground v.1.15,2013-05-11 07:50:00,
2013-05-11 04:10:00,57.4,55.1,29.43,SSW,202,2.0,4.0,92,0.00,,,0.00,Wunderground v.1.15,2013-05-11 08:10:00,
2013-05-11 04:15:00,57.5,55.2,29.42,SSW,209,2.0,5.0,92,0.00,,,0.00,Wunderground v.1.15,2013-05-11 08:15:00,
2013-05-11 04:20:00,57.6,55.3,29.41,SSE,167,2.0,9.0,92,0.00,,,0.00,Wunderground v.1.15,2013-05-11 08:20:00,
2013-05-11 04:25:00,57.7,55.1,29.41,SSW,192,4.0,9.0,91,0.00,,,0.00,Wunderground v.1.15,2013-05-11 08:25:00,
2013-05-11 04:35:00,58.0,55.1,29.41,SW,223,5.0,7.0,90,0.00,,,0.00,Wunderground v.1.15,2013-05-11 08:35:00,
2013-05-11 04:40:00,58.0,55.1,29.41,SSW,207,5.0,7.0,90,0.00,,,0.00,Wunderground v.1.15,2013-05-11 08:40:00,
2013-05-11 04:45:00,58.1,55.2,29.40,SW,217,5.0,8.0,90,0.00,,,0.00,Wunderground v.1.15,2013-05-11 08:45:00,
2013-05-11 04:55:00,58.0,55.1,29.40,SSW,201,5.0,5.0,90,0.00,,,0.00,Wunderground v.1.15,2013-05-11 08:55:00,
2013-05-11 05:15:00,58.0,54.8,29.40,SSW,198,6.0,7.0,89,0.00,,,0.00,Wunderground v.1.15,2013-05-11 09:15:00,
2013-05-11 05:40:00,57.9,55.0,29.40,SW,232,5.0,5.0,90,0.00,,,0.00,Wunderground v.1.15,2013-05-11 09:40:00,
2013-05-11 05:45:00,57.8,54.9,29.40,SSW,211,4.0,5.0,90,0.00,,,0.00,Wunderground v.1.15,2013-05-11 09:45:00,
2013-05-11 05:55:00,57.5,54.9,29.40,South,187,5.0,7.0,91,0.00,,,0.01,Wunderground v.1.15,2013-05-11 09:55:00,
2013-05-11 06:05:00,57.2,54.9,29.40,South,175,6.0,6.0,92,0.00,,,0.01,Wunderground v.1.15,2013-05-11 10:05:00,
2013-05-11 06:15:00,57.0,55.0,29.40,SW,216,5.0,6.0,93,0.00,,,0.02,Wunderground v.1.15,2013-05-11 10:15:00,
2013-05-11 06:20:00,56.9,54.9,29.40,South,180,5.0,6.0,93,0.00,,,0.02,Wunderground v.1.15,2013-05-11 10:20:00,
2013-05-11 06:40:00,56.7,55.0,29.40,South,181,4.0,4.0,94,0.00,,,0.03,Wunderground v.1.15,2013-05-11 10:40:00,
2013-05-11 06:45:00,56.7,55.0,29.39,SSW,211,5.0,5.0,94,0.00,,,0.03,Wunderground v.1.15,2013-05-11 10:45:00,
2013-05-11 06:55:00,56.7,55.3,29.39,South,179,4.0,6.0,95,0.00,,,0.03,Wunderground v.1.15,2013-05-11 10:55:00,
2013-05-11 07:00:00,56.7,55.3,29.39,South,186,5.0,10.0,95,0.00,,,0.03,Wunderground v.1.15,2013-05-11 11:00:00,
2013-05-11 07:14:00,56.8,55.4,29.38,SW,215,5.0,5.0,95,0.00,,,0.03,Wunderground v.1.15,2013-05-11 11:14:00,
2013-05-11 07:20:00,56.9,55.5,29.38,SW,224,4.0,8.0,95,0.00,,,0.03,Wunderground v.1.15,2013-05-11 11:20:00,
2013-05-11 07:25:00,56.9,55.5,29.38,SW,234,4.0,5.0,95,0.00,,,0.03,Wunderground v.1.15,2013-05-11 11:25:00,
2013-05-11 07:30:00,57.1,55.7,29.38,South,185,4.0,5.0,95,0.00,,,0.03,Wunderground v.1.15,2013-05-11 11:30:00,
2013-05-11 07:40:00,57.2,55.8,29.37,SSE,154,5.0,6.0,95,0.00,,,0.04,Wunderground v.1.15,2013-05-11 11:40:00,
2013-05-11 07:50:00,57.2,55.8,29.37,SSW,210,5.0,10.0,95,0.00,,,0.04,Wunderground v.1.15,2013-05-11 11:50:00,
2013-05-11 07:55:00,57.1,55.7,29.37,SSW,200,5.0,5.0,95,0.00,,,0.04,Wunderground v.1.15,2013-05-11 11:55:00,
2013-05-11 08:05:00,57.1,55.7,29.37,SSW,202,5.0,7.0,95,0.00,,,0.04,Wunderground v.1.15,2013-05-11 12:05:00,
2013-05-11 08:10:00,57.2,55.8,29.37,SSW,194,4.0,7.0,95,0.00,,,0.04,Wunderground v.1.15,2013-05-11 12:10:00,
2013-05-11 08:25:00,57.2,55.8,29.37,South,191,3.0,6.0,95,0.00,,,0.04,Wunderground v.1.15,2013-05-11 12:25:00,
2013-05-11 08:30:00,57.3,55.9,29.37,SW,218,3.0,9.0,95,0.00,,,0.04,Wunderground v.1.15,2013-05-11 12:30:00,
2013-05-11 08:45:00,57.6,56.2,29.36,South,182,5.0,5.0,95,0.00,,,0.04,Wunderground v.1.15,2013-05-11 12:45:00,
2013-05-11 09:00:00,57.8,56.4,29.36,South,188,5.0,6.0,95,0.00,,,0.04,Wunderground v.1.15,2013-05-11 13:00:00,
2013-05-11 09:05:00,57.9,56.5,29.36,South,190,5.0,6.0,95,0.00,,,0.04,Wunderground v.1.15,2013-05-11 13:05:00,
2013-05-11 09:20:00,58.0,56.3,29.36,South,187,6.0,6.0,94,0.00,,,0.04,Wunderground v.1.15,2013-05-11 13:20:00,
2013-05-11 09:30:00,58.1,56.4,29.36,South,169,5.0,5.0,94,0.00,,,0.04,Wunderground v.1.15,2013-05-11 13:30:00,
2013-05-11 09:35:00,58.2,56.5,29.36,SW,223,5.0,5.0,94,0.00,,,0.04,Wunderground v.1.15,2013-05-11 13:35:00,
2013-05-11 09:40:00,58.0,56.3,29.36,SSW,198,6.0,6.0,94,0.00,,,0.04,Wunderground v.1.15,2013-05-11 13:40:00,
2013-05-11 09:50:00,58.1,56.4,29.36,South,176,5.0,5.0,94,0.00,,,0.04,Wunderground v.1.15,2013-05-11 13:50:00,
2013-05-11 09:55:00,58.7,57.3,29.36,South,182,4.0,5.0,95,0.00,,,0.04,Wunderground v.1.15,2013-05-11 13:55:00,
2013-05-11 10:05:00,59.2,57.2,29.35,East,98,6.0,6.0,93,0.00,,,0.04,Wunderground v.1.15,2013-05-11 14:05:00,
2013-05-11 10:20:00,60.6,58.6,29.35,SSE,165,5.0,9.0,93,0.00,,,0.04,Wunderground v.1.15,2013-05-11 14:20:00,
2013-05-11 10:25:00,61.2,58.9,29.34,SW,222,7.0,9.0,92,0.00,,,0.04,Wunderground v.1.15,2013-05-11 14:25:00,
2013-05-11 10:35:00,61.8,59.1,29.34,ESE,119,7.0,7.0,91,0.00,,,0.04,Wunderground v.1.15,2013-05-11 14:35:00,
2013-05-11 10:40:00,61.3,58.3,29.34,SE,144,8.0,8.0,90,0.00,,,0.04,Wunderground v.1.15,2013-05-11 14:40:00,
2013-05-11 10:50:00,60.9,57.9,29.34,SE,136,7.0,7.0,90,0.00,,,0.04,Wunderground v.1.15,2013-05-11 14:50:00,
2013-05-11 10:55:00,60.5,57.9,29.35,SSE,165,7.0,7.0,91,0.00,,,0.04,Wunderground v.1.15,2013-05-11 14:55:00,
2013-05-11 11:05:00,61.6,58.9,29.34,South,177,6.0,6.0,91,0.00,,,0.04,Wunderground v.1.15,2013-05-11 15:05:00,
2013-05-11 11:15:00,62.9,60.2,29.34,South,187,5.0,8.0,91,0.00,,,0.04,Wunderground v.1.15,2013-05-11 15:15:00,
2013-05-11 11:20:00,62.6,59.0,29.33,SSW,213,6.0,9.0,88,0.00,,,0.04,Wunderground v.1.15,2013-05-11 15:20:00,
2013-05-11 11:40:00,61.5,58.2,29.34,SSW,210,6.0,6.0,89,0.00,,,0.04,Wunderground v.1.15,2013-05-11 15:40:00,
2013-05-11 11:50:00,61.2,57.9,29.34,South,184,6.0,6.0,89,0.00,,,0.04,Wunderground v.1.15,2013-05-11 15:50:00,
2013-05-11 12:00:00,61.1,58.1,29.34,South,186,6.0,6.0,90,0.00,,,0.04,Wunderground v.1.15,2013-05-11 16:00:00,
2013-05-11 12:10:00,61.1,58.1,29.33,SSE,167,5.0,5.0,90,0.00,,,0.04,Wunderground v.1.15,2013-05-11 16:10:00,
2013-05-11 12:15:00,61.4,58.4,29.34,SE,130,5.0,5.0,90,0.00,,,0.04,Wunderground v.1.15,2013-05-11 16:15:00,
2013-05-11 12:25:00,61.5,58.5,29.34,South,190,6.0,13.0,90,0.00,,,0.04,Wunderground v.1.15,2013-05-11 16:25:00,
2013-05-11 12:35:00,61.2,58.2,29.33,South,171,5.0,9.0,90,0.00,,,0.04,Wunderground v.1.15,2013-05-11 16:35:00,
2013-05-11 12:50:00,61.8,59.1,29.33,South,186,5.0,5.0,91,0.00,,,0.04,Wunderground v.1.15,2013-05-11 16:50:00,
2013-05-11 13:00:00,63.1,60.7,29.33,South,189,4.0,8.0,92,0.00,,,0.04,Wunderground v.1.15,2013-05-11 17:00:00,
2013-05-11 13:05:00,62.9,59.6,29.32,SSE,155,5.0,8.0,89,0.00,,,0.04,Wunderground v.1.15,2013-05-11 17:05:00,
2013-05-11 13:15:00,63.1,60.1,29.32,SSW,206,5.0,8.0,90,0.00,,,0.04,Wunderground v.1.15,2013-05-11 17:15:00,
2013-05-11 13:30:00,62.8,59.8,29.32,SW,215,6.0,6.0,90,0.00,,,0.04,Wunderground v.1.15,2013-05-11 17:30:00,
2013-05-11 13:35:00,62.9,59.6,29.32,SE,146,5.0,7.0,89,0.00,,,0.04,Wunderground v.1.15,2013-05-11 17:35:00,
2013-05-11 13:45:00,62.2,58.6,29.32,SSW,199,7.0,7.0,88,0.00,,,0.04,Wunderground v.1.15,2013-05-11 17:45:00,
2013-05-11 13:55:00,61.7,58.7,29.32,SSW,192,8.0,8.0,90,0.00,,,0.04,Wunderground v.1.15,2013-05-11 17:55:00,
2013-05-11 14:10:00,61.0,59.0,29.32,SSW,208,5.0,5.0,93,0.22,,,0.07,Wunderground v.1.15,2013-05-11 18:10:00,
2013-05-11 14:15:00,60.8,58.8,29.32,SSW,205,5.0,7.0,93,0.08,,,0.07,Wunderground v.1.15,2013-05-11 18:15:00,
2013-05-11 14:20:00,60.8,59.1,29.32,SSW,211,5.0,5.0,94,0.05,,,0.07,Wunderground v.1.15,2013-05-11 18:20:00,
2013-05-11 14:35:00,62.1,60.7,29.31,South,182,4.0,5.0,95,0.00,,,0.07,Wunderground v.1.15,2013-05-11 18:35:00,
2013-05-11 14:50:00,61.6,59.6,29.31,South,186,6.0,8.0,93,0.00,,,0.08,Wunderground v.1.15,2013-05-11 18:50:00,
2013-05-11 14:55:00,62.2,60.5,29.30,SSE,166,5.0,8.0,94,0.00,,,0.08,Wunderground v.1.15,2013-05-11 18:55:00,
2013-05-11 15:10:00,63.9,61.8,29.30,SW,215,4.0,4.0,93,0.00,,,0.08,Wunderground v.1.15,2013-05-11 19:10:00,
2013-05-11 15:15:00,63.9,61.2,29.31,South,176,4.0,8.0,91,0.00,,,0.08,Wunderground v.1.15,2013-05-11 19:15:00,
2013-05-11 15:30:00,63.5,60.8,29.30,SSW,202,3.0,3.0,91,0.00,,,0.08,Wunderground v.1.15,2013-05-11 19:30:00,
2013-05-11 15:35:00,63.4,60.7,29.30,ESE,118,3.0,3.0,91,0.00,,,0.08,Wunderground v.1.15,2013-05-11 19:35:00,
2013-05-11 15:45:00,63.0,60.3,29.30,South,170,2.0,2.0,91,0.00,,,0.08,Wunderground v.1.15,2013-05-11 19:45:00,
2013-05-11 15:50:00,62.9,60.2,29.30,South,175,2.0,2.0,91,0.00,,,0.08,Wunderground v.1.15,2013-05-11 19:50:00,
2013-05-11 15:55:00,62.9,60.2,29.30,South,177,2.0,2.0,91,0.00,,,0.08,Wunderground v.1.15,2013-05-11 19:55:00,
2013-05-11 16:05:00,62.8,60.1,29.30,SSW,196,2.0,5.0,91,0.00,,,0.08,Wunderground v.1.15,2013-05-11 20:05:00,
2013-05-11 16:15:00,62.5,59.8,29.30,SSW,207,5.0,5.0,91,0.00,,,0.08,Wunderground v.1.15,2013-05-11 20:15:00,
2013-05-11 16:25:00,62.2,59.8,29.30,South,184,4.0,4.0,92,0.00,,,0.09,Wunderground v.1.15,2013-05-11 20:25:00,
2013-05-11 16:30:00,62.0,59.6,29.30,SSW,192,4.0,4.0,92,0.08,,,0.10,Wunderground v.1.15,2013-05-11 20:30:00,
2013-05-11 16:40:00,61.6,59.6,29.30,SSW,209,4.0,5.0,93,0.08,,,0.11,Wunderground v.1.15,2013-05-11 20:40:00,
2013-05-11 16:45:00,61.5,59.8,29.30,SSW,209,4.0,5.0,94,0.05,,,0.12,Wunderground v.1.15,2013-05-11 20:45:00,
2013-05-11 16:50:00,61.3,59.6,29.30,SSW,205,3.0,3.0,94,0.05,,,0.12,Wunderground v.1.15,2013-05-11 20:50:00,
2013-05-11 17:05:00,61.1,59.7,29.30,SSW,208,1.0,2.0,95,0.00,,,0.12,Wunderground v.1.15,2013-05-11 21:05:00,
2013-05-11 17:15:00,61.0,59.6,29.30,SSW,196,1.0,1.0,95,0.00,,,0.12,Wunderground v.1.15,2013-05-11 21:15:00,
2013-05-11 17:30:00,61.2,59.8,29.29,South,188,1.0,1.0,95,0.00,,,0.12,Wunderground v.1.15,2013-05-11 21:30:00,
2013-05-11 17:35:00,61.1,59.7,29.29,South,184,2.0,2.0,95,0.00,,,0.12,Wunderground v.1.15,2013-05-11 21:35:00,
2013-05-11 17:45:00,61.0,59.6,29.29,SSW,192,2.0,2.0,95,0.00,,,0.12,Wunderground v.1.15,2013-05-11 21:45:00,
2013-05-11 17:50:00,61.1,60.0,29.29,South,174,2.0,2.0,96,0.00,,,0.12,Wunderground v.1.15,2013-05-11 21:50:00,
2013-05-11 18:05:00,61.0,59.9,29.29,SW,235,2.0,5.0,96,0.00,,,0.12,Wunderground v.1.15,2013-05-11 22:05:00,
2013-05-11 18:15:00,60.9,59.5,29.30,SSW,200,3.0,3.0,95,0.00,,,0.12,Wunderground v.1.15,2013-05-11 22:15:00,
2013-05-11 18:20:00,60.8,59.4,29.30,SSW,209,3.0,3.0,95,0.00,,,0.12,Wunderground v.1.15,2013-05-11 22:20:00,
2013-05-11 18:30:00,60.9,59.2,29.30,South,188,2.0,3.0,94,0.00,,,0.12,Wunderground v.1.15,2013-05-11 22:30:00,
2013-05-11 18:35:00,60.9,59.2,29.30,SSW,196,2.0,3.0,94,0.00,,,0.12,Wunderground v.1.15,2013-05-11 22:35:00,
2013-05-11 18:55:00,60.7,59.0,29.30,South,182,1.0,1.0,94,0.00,,,0.12,Wunderground v.1.15,2013-05-11 22:55:00,
2013-05-11 19:00:00,60.7,59.0,29.30,South,173,1.0,3.0,94,0.00,,,0.12,Wunderground v.1.15,2013-05-11 23:00:00,
2013-05-11 19:10:00,60.5,58.8,29.31,South,171,1.0,2.0,94,0.00,,,0.12,Wunderground v.1.15,2013-05-11 23:10:00,
2013-05-11 19:15:00,60.3,58.3,29.31,SSW,207,2.0,4.0,93,0.00,,,0.12,Wunderground v.1.15,2013-05-11 23:15:00,
2013-05-11 19:25:00,60.2,58.2,29.31,SSW,207,3.0,5.0,93,0.00,,,0.12,Wunderground v.1.15,2013-05-11 23:25:00,
2013-05-11 19:35:00,60.1,57.2,29.31,South,186,3.0,5.0,90,0.00,,,0.12,Wunderground v.1.15,2013-05-11 23:35:00,
2013-05-11 19:45:00,60.4,57.1,29.31,SSW,198,3.0,14.0,89,0.00,,,0.12,Wunderground v.1.15,2013-05-11 23:45:00,
2013-05-11 19:55:00,60.2,56.9,29.32,SSW,192,2.0,2.0,89,0.00,,,0.12,Wunderground v.1.15,2013-05-11 23:55:00,
2013-05-11 20:05:00,59.8,56.6,29.32,SSW,198,1.0,1.0,89,0.00,,,0.12,Wunderground v.1.15,2013-05-12 00:05:00,
2013-05-11 20:15:00,59.4,56.5,29.32,SSW,198,0.0,0.0,90,0.00,,,0.12,Wunderground v.1.15,2013-05-12 00:15:00,
2013-05-11 20:20:00,59.2,56.3,29.32,SSW,198,0.0,0.0,90,0.00,,,0.12,Wunderground v.1.15,2013-05-12 00:20:00,
2013-05-11 20:30:00,59.0,56.1,29.33,WSW,248,1.0,2.0,90,0.00,,,0.12,Wunderground v.1.15,2013-05-12 00:30:00,
2013-05-11 20:35:00,59.1,56.2,29.33,WNW,286,1.0,2.0,90,0.00,,,0.12,Wunderground v.1.15,2013-05-12 00:35:00,
2013-05-11 20:45:00,59.1,55.9,29.33,West,270,1.0,1.0,89,0.00,,,0.12,Wunderground v.1.15,2013-05-12 00:45:00,
2013-05-11 20:55:00,58.9,55.7,29.34,North,360,2.0,2.0,89,0.00,,,0.12,Wunderground v.1.15,2013-05-12 00:55:00,
2013-05-11 21:05:00,56.7,53.5,29.34,NNE,26,4.0,4.0,89,0.00,,,0.12,Wunderground v.1.15,2013-05-12 01:05:00,
2013-05-11 21:20:00,55.0,52.4,29.34,NNE,24,5.0,5.0,91,0.00,,,0.12,Wunderground v.1.15,2013-05-12 01:20:00,
2013-05-11 21:25:00,54.6,52.0,29.35,NW,315,5.0,5.0,91,0.00,,,0.12,Wunderground v.1.15,2013-05-12 01:25:00,
2013-05-11 21:35:00,53.9,51.0,29.34,NNW,327,5.0,7.0,90,0.00,,,0.12,Wunderground v.1.15,2013-05-12 01:35:00,
2013-05-11 21:45:00,53.3,50.4,29.34,NNW,340,5.0,7.0,90,0.00,,,0.12,Wunderground v.1.15,2013-05-12 01:45:00,
2013-05-11 21:55:00,52.9,50.0,29.34,NNE,29,4.0,5.0,90,0.00,,,0.12,Wunderground v.1.15,2013-05-12 01:55:00,
2013-05-11 22:05:00,52.1,49.6,29.35,NNE,22,4.0,14.0,91,0.00,,,0.12,Wunderground v.1.15,2013-05-12 02:05:00,
2013-05-11 22:20:00,51.9,48.8,29.35,NNW,335,4.0,4.0,89,0.00,,,0.12,Wunderground v.1.15,2013-05-12 02:20:00,
2013-05-11 22:30:00,52.0,48.6,29.35,NNW,331,4.0,6.0,88,0.00,,,0.12,Wunderground v.1.15,2013-05-12 02:30:00,
2013-05-11 22:40:00,52.0,48.9,29.35,NNE,18,3.0,3.0,89,0.00,,,0.12,Wunderground v.1.15,2013-05-12 02:40:00,
2013-05-11 22:45:00,51.8,49.0,29.35,NNE,26,3.0,3.0,90,0.00,,,0.12,Wunderground v.1.15,2013-05-12 02:45:00,
2013-05-11 22:50:00,51.6,48.8,29.35,NNW,346,2.0,2.0,90,0.00,,,0.12,Wunderground v.1.15,2013-05-12 02:50:00,
2013-05-11 23:00:00,51.6,48.8,29.35,NNW,329,1.0,2.0,90,0.00,,,0.12,Wunderground v.1.15,2013-05-12 03:00:00,
2013-05-11 23:05:00,51.5,48.4,29.35,NNW,342,2.0,2.0,89,0.00,,,0.12,Wunderground v.1.15,2013-05-12 03:05:00,
2013-05-11 23:15:00,51.6,48.5,29.35,NNW,332,2.0,2.0,89,0.00,,,0.12,Wunderground v.1.15,2013-05-12 03:15:00,
2013-05-11 23:20:00,51.7,48.6,29.35,NNW,343,2.0,2.0,89,0.00,,,0.12,Wunderground v.1.15,2013-05-12 03:20:00,
2013-05-11 23:30:00,51.4,48.6,29.35,NNE,18,2.0,2.0,90,0.00,,,0.12,Wunderground v.1.15,2013-05-12 03:30:00,
2013-05-11 23:35:00,51.3,48.5,29.35,NNE,18,1.0,2.0,90,0.00,,,0.12,Wunderground v.1.15,2013-05-12 03:35:00,
2013-05-11 23:50:00,50.7,48.5,29.36,NNE,18,0.0,0.0,92,0.00,,,0.12,Wunderground v.1.15,2013-05-12 03:50:00,